createdAt,value
2022-09-22T00:02:41.261Z,102444.53
2022-09-22T00:07:42.589Z,102437.91
2022-09-22T00:12:46.468Z,102434.78
2022-09-22T00:17:47.811Z,102433.09
2022-09-22T00:22:50.224Z,102430.53
2022-09-22T00:27:54.442Z,102429.84
2022-09-22T00:32:56.153Z,102422.22
2022-09-22T00:37:57.489Z,102424.22
2022-09-22T00:43:15.621Z,102422.03
2022-09-22T00:48:18.804Z,102416.81
2022-09-22T00:53:21.699Z,102421.16
2022-09-22T00:58:28.634Z,102408.63
2022-09-22T01:03:30.537Z,102406.19
2022-09-22T01:08:33.520Z,102405.28
2022-09-22T01:13:47.107Z,102402.34
2022-09-22T01:19:07.103Z,102389.81
2022-09-22T01:24:14.507Z,102388.81
2022-09-22T01:29:25.863Z,102383.09
2022-09-22T01:34:53.050Z,102373.81
2022-09-22T01:39:57.977Z,102386.94
2022-09-22T01:45:10.072Z,102378.16
2022-09-22T01:50:18.232Z,102379.66
2022-09-22T01:55:22.870Z,102371.25
2022-09-22T02:00:24.446Z,102363.97
2022-09-22T02:05:32.981Z,102351.25
2022-09-22T02:10:36.725Z,102353.09
2022-09-22T02:15:56.892Z,102344.34
2022-09-22T02:20:58.662Z,102339.97
2022-09-22T02:26:01.914Z,102344.31
2022-09-22T02:31:19.491Z,102335.97
2022-09-22T02:36:43.125Z,102331.41
2022-09-22T02:41:47.524Z,102331.50
2022-09-22T02:46:53.699Z,102331.50
2022-09-22T02:51:55.079Z,102327.66
2022-09-22T02:56:56.538Z,102326.06
2022-09-22T03:01:57.873Z,102318.13
2022-09-22T03:06:59.253Z,102316.34
2022-09-22T03:12:00.680Z,102320.03
2022-09-22T03:17:01.980Z,102312.69
2022-09-22T03:22:03.401Z,102302.84
2022-09-22T03:27:04.736Z,102301.31
2022-09-22T03:32:06.075Z,102298.88
2022-09-22T03:37:07.406Z,102298.28
2022-09-22T03:42:08.677Z,102300.66
2022-09-22T03:47:10.188Z,102297.03
2022-09-22T03:52:11.568Z,102302.28
2022-09-22T03:57:12.862Z,102300.47
2022-09-22T04:02:14.207Z,102293.63
2022-09-22T04:07:15.589Z,102289.19
2022-09-22T04:12:16.864Z,102293.28
2022-09-22T04:17:20.344Z,102279.75
2022-09-22T04:22:21.658Z,102273.25
2022-09-22T04:27:23.220Z,102274.13
2022-09-22T04:32:24.589Z,102275.84
2022-09-22T04:37:25.886Z,102269.75
2022-09-22T04:42:27.193Z,102271.66
2022-09-22T04:47:31.681Z,102274.22
2022-09-22T04:52:33.087Z,102277.94
2022-09-22T04:57:34.559Z,102271.59
2022-09-22T05:02:35.901Z,102276.16
2022-09-22T05:07:40.317Z,102277.50
2022-09-22T05:12:42.184Z,102274.50
2022-09-22T05:17:47.207Z,102283.06
2022-09-22T05:22:48.733Z,102277.97
2022-09-22T05:27:51.520Z,102275.94
2022-09-22T05:32:53.156Z,102282.63
2022-09-22T05:37:54.594Z,102283.06
2022-09-22T05:42:56.276Z,102281.91
2022-09-22T05:47:57.751Z,102278.81
2022-09-22T05:53:06.627Z,102274.59
2022-09-22T05:58:13.244Z,102279.09
2022-09-22T06:03:17.741Z,102278.13
2022-09-22T06:08:19.124Z,102282.91
2022-09-22T06:13:20.398Z,102284.63
2022-09-22T06:18:24.880Z,102291.41
2022-09-22T06:23:26.418Z,102281.69
2022-09-22T06:28:27.762Z,102281.34
2022-09-22T06:33:29.329Z,102284.59
2022-09-22T06:38:31.918Z,102274.94
2022-09-22T06:43:37.745Z,102276.44
2022-09-22T06:48:39.170Z,102275.91
2022-09-22T06:53:40.445Z,102274.28
2022-09-22T06:59:08.299Z,102271.19
2022-09-22T07:04:05.276Z,102267.34
2022-09-22T07:09:07.505Z,102266.66
2022-09-22T07:14:11.513Z,102264.78
2022-09-22T07:19:12.792Z,102262.50
2022-09-22T07:24:14.896Z,102268.47
2022-09-22T07:29:17.701Z,102257.38
2022-09-22T07:34:18.980Z,102258.88
2022-09-22T07:39:20.313Z,102257.72
2022-09-22T07:44:44.329Z,102256.41
2022-09-22T07:49:46.042Z,102254.56
2022-09-22T07:54:47.346Z,102252.81
2022-09-22T07:59:48.696Z,102250.28
2022-09-22T08:04:50.011Z,102247.16
2022-09-22T08:09:51.279Z,102248.06
2022-09-22T08:14:53.426Z,102246.69
2022-09-22T08:19:55.816Z,102233.53
2022-09-22T08:24:57.299Z,102239.69
2022-09-22T08:29:58.793Z,102237.34
2022-09-22T08:35:00.120Z,102231.94
2022-09-22T08:40:01.710Z,102231.84
2022-09-22T08:45:06.977Z,102230.03
2022-09-22T08:50:44.666Z,102225.47
2022-09-22T08:55:50.717Z,102221.59
2022-09-22T09:00:58.206Z,102215.69
2022-09-22T09:06:12.775Z,102212.34
2022-09-22T09:11:14.073Z,102216.22
2022-09-22T09:16:15.423Z,102209.75
2022-09-22T09:21:16.912Z,102207.81
2022-09-22T09:26:18.444Z,102203.50
2022-09-22T09:31:35.048Z,102200.75
2022-09-22T09:36:37.832Z,102196.03
2022-09-22T09:41:39.986Z,102192.78
2022-09-22T09:46:50.491Z,102181.84
2022-09-22T09:51:54.836Z,102191.81
2022-09-22T09:57:08.352Z,102184.31
2022-09-22T10:02:14.466Z,102183.09
2022-09-22T10:07:17.504Z,102170.91
2022-09-22T10:12:23.186Z,102160.50
2022-09-22T10:17:33.796Z,102151.22
2022-09-22T10:22:39.176Z,102151.44
2022-09-22T10:27:42.649Z,102146.66
2022-09-22T10:33:02.738Z,102136.44
2022-09-22T10:38:14.256Z,102116.03
2022-09-22T10:43:20.363Z,102113.97
2022-09-22T10:48:29.435Z,102105.56
2022-09-22T10:53:49.503Z,102089.97
2022-09-22T10:59:09.271Z,102096.84
2022-09-22T11:04:30.295Z,102083.91
2022-09-22T11:09:54.934Z,102080.34
2022-09-22T11:15:11.177Z,102082.13
2022-09-22T11:20:32.327Z,102085.56
2022-09-22T11:25:42.210Z,102082.91
2022-09-22T11:30:54.491Z,102076.84
2022-09-22T11:35:58.787Z,102063.81
2022-09-22T11:41:01.004Z,102055.00
2022-09-22T11:46:23.151Z,102062.94
2022-09-22T11:51:29.215Z,102050.72
2022-09-22T11:56:38.079Z,102052.44
2022-09-22T12:01:40.540Z,102043.72
2022-09-22T12:06:44.890Z,102037.50
2022-09-22T12:11:46.294Z,102030.59
2022-09-22T12:16:51.981Z,102026.97
2022-09-22T12:22:05.054Z,102012.16
2022-09-22T12:27:21.323Z,102007.00
2022-09-22T12:32:29.485Z,101993.84
2022-09-22T12:37:32.405Z,101976.38
2022-09-22T12:42:35.954Z,101979.88
2022-09-22T12:47:42.052Z,101983.38
2022-09-22T12:52:43.441Z,101966.75
2022-09-22T12:57:45.929Z,101968.44
2022-09-22T13:02:49.834Z,101958.00
2022-09-22T13:07:55.867Z,101962.34
2022-09-22T13:13:06.218Z,101955.25
2022-09-22T13:18:27.124Z,101955.28
2022-09-22T13:23:28.832Z,101948.44
2022-09-22T13:28:30.144Z,101936.22
2022-09-22T13:33:35.487Z,101942.28
2022-09-22T13:38:42.567Z,101930.97
2022-09-22T13:43:45.487Z,101932.69
2022-09-22T13:48:47.016Z,101920.47
2022-09-22T13:53:51.208Z,101916.97
2022-09-22T13:58:55.603Z,101910.00
2022-09-22T14:03:56.966Z,101919.59
2022-09-22T14:08:58.945Z,101914.38
2022-09-22T14:14:01.304Z,101907.31
2022-09-22T14:19:05.801Z,101901.13
2022-09-22T14:24:07.184Z,101913.19
2022-09-22T14:29:14.608Z,101903.63
2022-09-22T14:34:21.556Z,101901.00
2022-09-22T14:39:31.873Z,101890.59
2022-09-22T14:44:43.684Z,101887.94
2022-09-22T14:49:47.504Z,101880.13
2022-09-22T14:54:49.400Z,101875.78
2022-09-22T15:00:14.132Z,101866.16
2022-09-22T15:05:30.326Z,101865.25
2022-09-22T15:10:37.183Z,101859.06
2022-09-22T15:15:52.601Z,101860.88
2022-09-22T15:21:09.074Z,101856.47
2022-09-22T15:26:21.689Z,101851.22
2022-09-22T15:31:29.771Z,101854.69
2022-09-22T15:36:33.017Z,101853.81
2022-09-22T15:41:34.964Z,101851.22
2022-09-22T15:46:37.763Z,101844.09
2022-09-22T15:51:39.233Z,101838.03
2022-09-22T15:56:41.938Z,101834.59
2022-09-22T16:01:44.151Z,101829.31
2022-09-22T16:06:48.952Z,101831.94
2022-09-22T16:11:50.554Z,101838.78
2022-09-22T16:16:52.255Z,101826.53
2022-09-22T16:21:56.833Z,101829.16
2022-09-22T16:26:58.608Z,101833.38
2022-09-22T16:32:02.461Z,101832.47
2022-09-22T16:37:03.834Z,101829.81
2022-09-22T16:42:05.482Z,101826.28
2022-09-22T16:47:06.957Z,101830.31
2022-09-22T16:52:10.897Z,101827.50
2022-09-22T16:57:12.526Z,101828.19
2022-09-22T17:02:16.238Z,101828.03
2022-09-22T17:07:17.838Z,101825.16
2022-09-22T17:12:21.461Z,101830.28
2022-09-22T17:17:22.917Z,101831.19
2022-09-22T17:22:24.289Z,101822.94
2022-09-22T17:27:26.251Z,101836.28
2022-09-22T17:32:28.126Z,101843.00
2022-09-22T17:37:29.539Z,101845.06
2022-09-22T17:42:31.785Z,101845.31
2022-09-22T17:47:51.883Z,101855.25
2022-09-22T17:53:19.305Z,101852.38
2022-09-22T17:58:23.939Z,101858.56
2022-09-22T18:03:25.270Z,101866.69
2022-09-22T18:08:26.676Z,101869.69
2022-09-22T18:13:28.261Z,101864.09
2022-09-22T18:18:30.067Z,101867.97
2022-09-22T18:23:31.413Z,101871.03
2022-09-22T18:28:33.773Z,101861.69
2022-09-22T18:33:36.649Z,101865.59
2022-09-22T18:38:42.245Z,101863.72
2022-09-22T18:43:43.631Z,101878.84
2022-09-22T18:48:47.975Z,101881.69
2022-09-22T18:53:50.076Z,101885.34
2022-09-22T18:58:53.584Z,101883.97
2022-09-22T19:03:54.906Z,101887.19
2022-09-22T19:08:56.282Z,101881.75
2022-09-22T19:13:57.614Z,101886.16
2022-09-22T19:18:59.722Z,101884.94
2022-09-22T19:24:01.559Z,101882.00
2022-09-22T19:29:05.269Z,101888.56
2022-09-22T19:34:07.626Z,101888.31
2022-09-22T19:39:18.310Z,101887.69
2022-09-22T19:44:20.703Z,101889.34
2022-09-22T19:49:23.610Z,101885.59
2022-09-22T19:54:26.460Z,101878.06
2022-09-22T19:59:27.806Z,101886.59
2022-09-22T20:04:29.403Z,101875.00
2022-09-22T20:09:30.949Z,101871.53
2022-09-22T20:14:32.413Z,101861.50
2022-09-22T20:19:36.361Z,101864.13
2022-09-22T20:24:40.757Z,101863.16
2022-09-22T20:29:44.172Z,101862.75
2022-09-22T20:34:47.617Z,101863.38
2022-09-22T20:39:49.252Z,101858.31
2022-09-22T20:44:50.673Z,101856.00
2022-09-22T20:49:52.213Z,101847.94
2022-09-22T20:54:53.639Z,101847.19
2022-09-22T20:59:55.992Z,101842.72
2022-09-22T21:04:57.311Z,101839.56
2022-09-22T21:10:23.908Z,101836.66
2022-09-22T21:15:27.977Z,101826.84
2022-09-22T21:20:29.588Z,101820.81
2022-09-22T21:25:31.212Z,101822.88
2022-09-22T21:30:32.570Z,101820.16
2022-09-22T21:35:34.941Z,101818.16
2022-09-22T21:40:36.373Z,101814.56
2022-09-22T21:45:39.068Z,101805.84
2022-09-22T21:50:41.088Z,101796.81
2022-09-22T21:55:42.475Z,101798.56
2022-09-22T22:00:52.223Z,101789.63
2022-09-22T22:05:58.623Z,101788.50
2022-09-22T22:11:08.870Z,101782.91
2022-09-22T22:16:11.681Z,101771.03
2022-09-22T22:21:14.857Z,101774.13
2022-09-22T22:26:22.286Z,101769.72
2022-09-22T22:31:26.157Z,101766.63
2022-09-22T22:36:27.604Z,101766.06
2022-09-22T22:41:32.981Z,101764.00
2022-09-22T22:46:34.455Z,101760.59
2022-09-22T22:51:36.307Z,101756.19
2022-09-22T22:56:41.510Z,101747.97
2022-09-22T23:01:44.435Z,101735.72
2022-09-22T23:06:47.831Z,101731.59
2022-09-22T23:11:51.694Z,101734.38
2022-09-22T23:16:52.997Z,101728.03
2022-09-22T23:21:55.375Z,101725.53
2022-09-22T23:26:56.708Z,101719.50
2022-09-22T23:31:57.988Z,101714.34
2022-09-22T23:36:59.475Z,101710.75
2022-09-22T23:42:00.815Z,101698.78
2022-09-22T23:47:03.051Z,101704.63
2022-09-22T23:52:04.531Z,101704.34
2022-09-22T23:57:05.846Z,101709.56
